»·PEaware :: JNY605 KEWR-KJFK

JNY605 :: KEWR-KJFK

FLIGHT INFORMATION

Flight Status: Arrived
Operator: Unknown
More flights by this operator :: More flights under this callsign
Pilot: Anonymous 42136 (42136)
Aircraft: CANADAIR CL-600 CHALLENGER
(CL60)
More flights by this aircraft type
Origin: KEWR Newark Intl
United States
Destination: KJFK Kennedy Intl
United States
More flights between these airports :: More routes between these airports
Route: DPK
File this flight plan on PilotEdge
Remarks:
Altitude:
(Current/Filed)
11,000ft
Speed:
(Current/Filed)
320kts
Departed: 14-Nov-22 06:54 AM
Arrived: 14-Nov-22 08:02 AM
Distance/Time
Traveled:
17nm/1:07
Distance/Time
To Go:
Arrived

Flight Plot

Page will automatically refresh every two minutes.

Flight plan parsing failed; only flown route is shown


Map Options




Map Legend


Flown Route
Filed Route
Departure Airport
Arrival Airport
Navaid (VOR, NDB)
Fix

Horizontal Profiles

Position Reports

Time Latitude Longitude Heading Altitude Ground
Speed
14-Nov-22 06:42 40.691160 -74.171374 295 14ft 0kts
14-Nov-22 06:43 40.691160 -74.171374 295 14ft 0kts
14-Nov-22 06:44 40.691160 -74.171374 295 14ft 0kts
14-Nov-22 06:45 40.691160 -74.171374 295 14ft 0kts
14-Nov-22 06:46 40.691160 -74.171374 295 14ft 0kts
14-Nov-22 06:47 40.691160 -74.171374 295 14ft 0kts
14-Nov-22 06:48 40.691160 -74.171374 295 14ft 0kts
14-Nov-22 06:49 40.690128 -74.172874 206 14ft 15kts
14-Nov-22 06:50 40.685488 -74.175823 206 14ft 20kts
14-Nov-22 06:51 40.680060 -74.179260 205 14ft 19kts
14-Nov-22 06:52 40.676352 -74.180989 130 14ft 9kts
14-Nov-22 06:53 40.676006 -74.180452 131 14ft 0kts
14-Nov-22 06:54 40.681906 -74.175305 25 15ft 130kts
14-Nov-22 06:55 40.720584 -74.133712 46 2519ft 205kts
14-Nov-22 06:56 40.774451 -74.144972 288 5070ft 246kts
14-Nov-22 06:57 40.786020 -74.232798 277 6620ft 244kts
14-Nov-22 06:58 40.798416 -74.324986 277 8349ft 258kts
14-Nov-22 06:59 40.852283 -74.377567 7 9964ft 304kts
14-Nov-22 07:00 40.935227 -74.326822 31 10976ft 354kts
14-Nov-22 07:01 41.014223 -74.250698 57 11005ft 351kts
14-Nov-22 07:02 41.061419 -74.137346 64 11004ft 350kts
14-Nov-22 07:03 41.107022 -74.022410 64 10978ft 350kts
14-Nov-22 07:03 41.144740 -73.926781 64 10963ft 350kts
14-Nov-22 07:04 41.189643 -73.812212 64 10963ft 350kts
14-Nov-22 07:06 41.244724 -73.671341 63 10959ft 372kts
14-Nov-22 07:07 41.273493 -73.542879 99 10975ft 362kts
14-Nov-22 07:08 41.260001 -73.415433 102 10978ft 339kts
14-Nov-22 07:08 41.247728 -73.311919 103 10970ft 338kts
14-Nov-22 07:09 41.231745 -73.201207 127 10973ft 256kts
14-Nov-22 07:10 41.181189 -73.144088 149 10973ft 237kts
14-Nov-22 07:12 41.121702 -73.128967 242 10969ft 206kts
14-Nov-22 07:13 41.150450 -73.195555 311 10972ft 234kts
14-Nov-22 07:13 41.203188 -73.216702 3 10970ft 263kts
14-Nov-22 07:14 41.275126 -73.193981 13 10969ft 267kts
14-Nov-22 07:15 41.346469 -73.165639 15 10960ft 268kts
14-Nov-22 07:16 41.372140 -73.087352 125 10958ft 246kts
14-Nov-22 07:17 41.317926 -73.061882 197 10970ft 216kts
14-Nov-22 07:18 41.259884 -73.084521 198 10966ft 217kts
14-Nov-22 07:19 41.201727 -73.107926 199 10966ft 217kts
14-Nov-22 07:20 41.145436 -73.136447 222 10967ft 216kts
14-Nov-22 07:21 41.140098 -73.211803 302 10969ft 239kts
14-Nov-22 07:22 41.205234 -73.223014 13 10975ft 267kts
14-Nov-22 07:23 41.276430 -73.194833 14 10970ft 267kts
14-Nov-22 07:24 41.347717 -73.166108 16 10959ft 268kts
14-Nov-22 07:25 41.372690 -73.087643 125 10958ft 245kts
14-Nov-22 07:26 41.318777 -73.061709 197 10969ft 216kts
14-Nov-22 07:27 41.260885 -73.084327 198 10966ft 217kts
14-Nov-22 07:28 41.202886 -73.107668 199 10967ft 217kts
14-Nov-22 07:29 41.146487 -73.135426 221 10966ft 216kts
14-Nov-22 07:30 41.138625 -73.210367 299 10968ft 238kts
14-Nov-22 07:31 41.202373 -73.223863 14 10083ft 260kts
14-Nov-22 07:32 41.243793 -73.145904 98 9928ft 300kts
14-Nov-22 07:33 41.188155 -73.096223 197 9982ft 262kts
14-Nov-22 07:34 41.119679 -73.129114 204 9967ft 263kts
14-Nov-22 07:35 41.051760 -73.165246 205 8863ft 260kts
14-Nov-22 07:36 40.984768 -73.201152 205 7542ft 258kts
14-Nov-22 07:37 40.918866 -73.236410 205 6084ft 251kts
14-Nov-22 07:38 40.853588 -73.271395 205 5965ft 254kts
14-Nov-22 07:39 40.799414 -73.321955 263 5977ft 247kts
14-Nov-22 07:40 40.796542 -73.413532 267 4826ft 245kts
14-Nov-22 07:41 40.793520 -73.501826 267 3043ft 228kts
14-Nov-22 07:42 40.788095 -73.576270 244 2857ft 203kts
14-Nov-22 07:43 40.757405 -73.637356 233 1988ft 198kts
14-Nov-22 07:44 40.719624 -73.676335 225 1933ft 160kts
14-Nov-22 07:45 40.685047 -73.714294 225 1069ft 159kts
14-Nov-22 07:46 40.654779 -73.746525 212 605ft 151kts
14-Nov-22 07:47 40.606463 -73.753412 138 2342ft 223kts
14-Nov-22 07:48 40.557323 -73.687751 135 2982ft 271kts
14-Nov-22 07:49 40.574070 -73.609662 27 2996ft 260kts
14-Nov-22 07:50 40.635957 -73.560379 27 3030ft 258kts
14-Nov-22 07:51 40.699304 -73.510818 26 3973ft 266kts
14-Nov-22 07:52 40.763462 -73.461435 26 3975ft 266kts
14-Nov-22 07:53 40.815806 -73.487066 278 3078ft 237kts
14-Nov-22 07:54 40.820543 -73.557377 274 3052ft 152kts
14-Nov-22 07:55 40.791654 -73.598767 223 3008ft 160kts
14-Nov-22 07:56 40.756386 -73.635223 226 2594ft 159kts
14-Nov-22 07:57 40.722309 -73.672931 226 1998ft 159kts
14-Nov-22 07:58 40.688089 -73.712695 233 1150ft 164kts
14-Nov-22 07:59 40.662976 -73.753232 216 655ft 142kts
14-Nov-22 08:00 40.633671 -73.776506 211 12ft 66kts
14-Nov-22 08:01 40.630578 -73.780252 301 11ft 0kts
14-Nov-22 08:02 40.632589 -73.780025 15 11ft 13kts
14-Nov-22 08:03 40.632801 -73.779943 16 11ft 2kts
14-Nov-22 08:04 40.634998 -73.782380 300 11ft 16kts
14-Nov-22 08:05 40.637916 -73.788815 300 13ft 19kts
14-Nov-22 08:06 40.641044 -73.795671 301 13ft 21kts
14-Nov-22 08:07 40.644571 -73.802333 300 14ft 22kts
14-Nov-22 08:08 40.648112 -73.810146 301 14ft 23kts
14-Nov-22 08:09 40.649267 -73.810663 139 14ft 9kts
14-Nov-22 08:10 40.648988 -73.809935 49 14ft 2kts
14-Nov-22 08:11 40.649083 -73.809945 303 14ft 0kts
14-Nov-22 08:12 40.649082 -73.809945 303 14ft 0kts
14-Nov-22 08:13 40.649082 -73.809945 303 14ft 0kts
14-Nov-22 08:14 40.649082 -73.809945 303 14ft 0kts
14-Nov-22 08:15 40.649082 -73.809945 303 14ft 0kts

Navigation Log

Ident Type
Flight plan parsing failed, navigation log unavailable